Time;durP1;ratioP1;P1;durP2;ratioP2;P2;SDS_P1;SDS_P2;PMS_P1;PMS_P2;Temp;Humidity;BMP_temperature;BMP_pressure;BME280_temperature;BME280_humidity;BME280_pressure;Samples;Min_cycle;Max_cycle;Signal;HPM_P1;HPM_P2
2023/04/07 00:01:39;;;;;;;25.47;5.30;;;8.00;99.90;;;;;;4908798;29;38855;-82
2023/04/07 00:04:06;;;;;;;14.53;5.30;;;8.00;99.90;;;;;;4923551;29;38856;-82
2023/04/07 00:06:44;;;;;;;23.93;6.57;;;8.00;99.90;;;;;;4943981;29;38626;-83
2023/04/07 00:09:10;;;;;;;23.50;5.67;;;8.00;99.90;;;;;;4925203;29;38516;-83
2023/04/07 00:11:37;;;;;;;22.73;5.80;;;8.00;99.90;;;;;;4918733;29;37339;-82
2023/04/07 00:14:08;;;;;;;20.43;6.20;;;7.90;99.90;;;;;;4923752;28;37686;-82
2023/04/07 00:16:37;;;;;;;19.17;7.40;;;7.90;99.90;;;;;;4929116;29;38258;-83
2023/04/07 00:19:08;;;;;;;18.40;5.93;;;7.90;99.90;;;;;;4928342;28;40362;-82
2023/04/07 00:21:37;;;;;;;31.07;6.53;;;7.90;99.90;;;;;;4933546;29;37986;-83
2023/04/07 00:24:04;;;;;;;19.20;5.80;;;7.90;99.90;;;;;;4911506;29;37391;-82
2023/04/07 00:26:32;;;;;;;20.83;5.90;;;7.90;99.90;;;;;;4930918;29;38295;-82
2023/04/07 00:29:03;;;;;;;21.03;5.77;;;7.80;99.90;;;;;;4935197;29;40259;-83
2023/04/07 00:31:30;;;;;;;22.60;5.87;;;7.80;99.90;;;;;;4909938;29;47827;-82
2023/04/07 00:33:57;;;;;;;23.47;5.07;;;7.70;99.90;;;;;;4927143;29;37718;-82
2023/04/07 00:36:28;;;;;;;22.60;6.00;;;7.70;99.90;;;;;;4930735;29;38348;-83
2023/04/07 00:38:56;;;;;;;23.93;5.63;;;7.60;99.90;;;;;;4897352;29;38713;-83
2023/04/07 00:41:26;;;;;;;26.20;6.70;;;7.60;99.90;;;;;;4902169;29;39905;-82
2023/04/07 00:43:53;;;;;;;22.90;5.83;;;7.60;99.90;;;;;;4908171;29;35828;-82
2023/04/07 00:46:23;;;;;;;22.50;7.53;;;7.60;99.90;;;;;;4903843;29;37641;-82
2023/04/07 00:48:50;;;;;;;19.10;5.77;;;7.60;99.90;;;;;;4899502;29;38786;-83
2023/04/07 00:51:20;;;;;;;28.00;7.23;;;7.60;99.90;;;;;;4879951;29;37596;-82
2023/04/07 00:53:46;;;;;;;19.30;5.50;;;7.50;99.90;;;;;;4900905;29;37038;-83
2023/04/07 00:56:13;;;;;;;22.00;6.73;;;7.60;99.90;;;;;;4900844;29;39117;-83
2023/04/07 00:58:42;;;;;;;24.57;5.87;;;7.60;99.90;;;;;;4909028;29;38425;-82
2023/04/07 01:04:02;;;;;;;27.23;6.93;;;7.60;99.90;;;;;;3815991;23;20983;-74
2023/04/07 01:06:33;;;;;;;25.17;6.30;;;7.60;99.90;;;;;;4919762;28;46942;-75
2023/04/07 01:08:59;;;;;;;17.73;5.53;;;7.60;99.90;;;;;;4920836;28;37297;-74
2023/04/07 01:11:41;;;;;;;24.53;5.67;;;7.50;99.90;;;;;;4924301;28;37936;-75
2023/04/07 01:14:10;;;;;;;19.17;6.07;;;7.50;99.90;;;;;;4927607;28;35870;-75
2023/04/07 01:16:47;;;;;;;28.93;6.40;;;7.50;99.90;;;;;;4941760;28;38379;-75
2023/04/07 01:19:31;;;;;;;23.13;6.70;;;7.40;99.90;;;;;;4940700;28;38306;-75
2023/04/07 01:21:59;;;;;;;20.30;5.80;;;7.30;99.90;;;;;;4923482;28;38524;-75
2023/04/07 01:24:54;;;;;;;23.70;7.73;;;7.20;99.90;;;;;;4919694;28;36506;-75
2023/04/07 01:27:24;;;;;;;18.63;5.97;;;7.10;99.90;;;;;;4941668;28;38913;-74
2023/04/07 01:29:52;;;;;;;22.23;6.13;;;7.00;99.90;;;;;;4917877;28;37769;-74
2023/04/07 01:32:22;;;;;;;18.03;5.80;;;7.00;99.90;;;;;;4938711;28;37914;-74
2023/04/07 01:34:51;;;;;;;19.13;4.93;;;6.90;99.90;;;;;;4938380;28;37902;-74
2023/04/07 01:37:17;;;;;;;18.17;5.57;;;6.80;99.90;;;;;;4946232;28;40543;-74
2023/04/07 01:39:44;;;;;;;21.60;5.60;;;6.90;99.90;;;;;;4921928;28;37665;-74
2023/04/07 01:42:11;;;;;;;25.20;6.50;;;7.00;99.90;;;;;;4929709;28;39183;-74
2023/04/07 01:44:37;;;;;;;21.17;6.57;;;7.10;99.90;;;;;;4942208;28;36684;-75
2023/04/07 01:47:04;;;;;;;25.90;6.33;;;7.10;99.90;;;;;;4928948;28;37847;-74
2023/04/07 01:49:32;;;;;;;25.57;7.13;;;7.20;99.90;;;;;;4931557;28;37558;-75
2023/04/07 01:51:59;;;;;;;20.83;6.57;;;7.30;99.90;;;;;;4926772;28;38707;-75
2023/04/07 01:54:26;;;;;;;25.27;5.93;;;7.30;99.90;;;;;;4928405;28;35837;-74
2023/04/07 01:56:52;;;;;;;20.33;5.27;;;7.30;99.90;;;;;;4939366;28;38800;-73
2023/04/07 01:59:18;;;;;;;16.97;5.50;;;7.50;99.90;;;;;;4927657;28;37452;-75
2023/04/07 02:01:44;;;;;;;11.20;4.87;;;7.50;99.90;;;;;;4930084;28;37783;-75
2023/04/07 02:04:17;;;;;;;24.00;6.40;;;7.50;99.90;;;;;;4925368;28;35943;-74
2023/04/07 02:06:51;;;;;;;13.50;5.67;;;7.60;99.90;;;;;;4938490;28;38867;-75
2023/04/07 02:09:20;;;;;;;20.77;6.27;;;7.60;99.90;;;;;;4933038;28;37565;-78
2023/04/07 02:11:48;;;;;;;18.37;6.60;;;7.70;99.90;;;;;;4941927;28;37465;-75
2023/04/07 02:14:16;;;;;;;21.80;7.03;;;7.70;99.90;;;;;;4940961;28;37592;-74
2023/04/07 02:16:44;;;;;;;20.70;7.07;;;7.80;99.90;;;;;;4955302;28;39642;-75
2023/04/07 02:19:10;;;;;;;18.73;7.30;;;7.80;99.90;;;;;;4929206;28;37709;-75
2023/04/07 02:21:39;;;;;;;22.87;9.13;;;7.90;99.90;;;;;;4952579;28;38577;-74
2023/04/07 02:24:05;;;;;;;24.10;7.47;;;7.90;99.90;;;;;;4957016;28;37630;-74
2023/04/07 02:26:34;;;;;;;20.37;7.53;;;7.80;99.90;;;;;;4946269;28;37625;-74
2023/04/07 02:29:01;;;;;;;19.57;7.73;;;7.70;99.90;;;;;;4951623;28;39265;-75
2023/04/07 02:31:27;;;;;;;18.27;7.43;;;7.70;99.90;;;;;;4935527;28;47303;-75
2023/04/07 02:33:53;;;;;;;19.47;7.80;;;7.70;99.90;;;;;;4940864;28;37018;-75
2023/04/07 02:36:19;;;;;;;21.23;7.03;;;7.70;99.90;;;;;;4937417;28;37609;-75
2023/04/07 02:38:45;;;;;;;25.63;8.83;;;7.70;99.90;;;;;;4939013;28;37584;-75
2023/04/07 02:41:11;;;;;;;18.13;7.77;;;7.70;99.90;;;;;;4944609;28;39162;-74
2023/04/07 02:43:38;;;;;;;22.00;7.07;;;7.80;99.90;;;;;;4958559;28;37976;-75
2023/04/07 02:46:04;;;;;;;19.53;7.17;;;7.80;99.90;;;;;;4935834;28;37763;-75
2023/04/07 02:48:30;;;;;;;26.93;7.63;;;7.80;99.90;;;;;;4943940;28;37886;-76
2023/04/07 02:50:57;;;;;;;20.97;6.90;;;7.80;99.90;;;;;;4941397;28;38388;-74
2023/04/07 02:53:24;;;;;;;18.10;6.80;;;7.80;99.90;;;;;;4952398;28;36813;-74
2023/04/07 02:55:50;;;;;;;18.70;6.77;;;7.80;99.90;;;;;;4936136;28;36645;-75
2023/04/07 02:58:16;;;;;;;24.13;7.10;;;7.90;99.90;;;;;;4929971;28;37765;-75
2023/04/07 03:00:42;;;;;;;19.83;7.53;;;7.90;99.90;;;;;;4928432;28;37594;-75
2023/04/07 03:03:08;;;;;;;21.90;7.33;;;7.90;99.90;;;;;;4937993;28;36045;-74
2023/04/07 03:05:34;;;;;;;21.13;6.43;;;8.00;99.90;;;;;;4946332;28;39645;-75
2023/04/07 03:08:00;;;;;;;18.07;6.63;;;8.00;99.90;;;;;;4933789;28;37729;-75
2023/04/07 03:10:26;;;;;;;22.47;7.30;;;8.00;99.90;;;;;;4954432;28;40569;-75
2023/04/07 03:12:53;;;;;;;16.83;6.53;;;8.10;99.90;;;;;;4940658;28;36122;-75
2023/04/07 03:15:19;;;;;;;20.53;7.60;;;8.20;99.90;;;;;;4936072;28;39430;-75
2023/04/07 03:17:45;;;;;;;16.80;6.10;;;8.20;99.90;;;;;;4935901;28;37639;-74
2023/04/07 03:20:12;;;;;;;14.67;5.93;;;8.20;99.90;;;;;;4930660;28;37678;-74
2023/04/07 03:22:38;;;;;;;25.00;5.60;;;8.20;99.90;;;;;;4947571;28;37493;-75
2023/04/07 03:25:04;;;;;;;12.73;5.80;;;8.20;99.90;;;;;;4938146;28;37408;-75
2023/04/07 03:27:30;;;;;;;22.37;7.27;;;8.20;99.90;;;;;;4930590;28;38671;-75
2023/04/07 03:29:56;;;;;;;16.83;6.60;;;8.20;99.90;;;;;;4939009;28;37976;-74
2023/04/07 03:32:23;;;;;;;17.73;5.90;;;8.30;99.90;;;;;;4948692;28;36790;-74
2023/04/07 03:34:50;;;;;;;13.90;6.30;;;8.30;99.90;;;;;;4929573;28;39769;-75
2023/04/07 03:37:16;;;;;;;15.53;6.43;;;8.30;99.90;;;;;;4929383;28;38133;-74
2023/04/07 03:39:42;;;;;;;21.40;6.70;;;8.30;99.90;;;;;;4945470;28;38028;-74
2023/04/07 03:42:08;;;;;;;20.37;6.10;;;8.30;99.90;;;;;;4933124;28;36412;-75
2023/04/07 03:44:34;;;;;;;14.33;5.83;;;8.40;99.90;;;;;;4945803;28;37420;-75
2023/04/07 03:47:01;;;;;;;17.03;5.73;;;8.40;99.90;;;;;;4933715;28;40253;-76
2023/04/07 03:49:27;;;;;;;19.90;6.03;;;8.40;99.90;;;;;;4955755;28;49068;-75
2023/04/07 03:51:53;;;;;;;21.13;7.10;;;8.40;99.90;;;;;;4944958;28;36771;-75
2023/04/07 03:54:19;;;;;;;24.20;6.90;;;8.40;99.90;;;;;;4940395;28;39580;-75
2023/04/07 03:56:46;;;;;;;15.10;5.77;;;8.40;99.90;;;;;;4940183;28;37929;-75
2023/04/07 03:59:25;;;;;;;22.80;8.03;;;8.40;99.90;;;;;;4903222;28;39394;-75
2023/04/07 04:01:51;;;;;;;18.63;6.57;;;8.40;99.90;;;;;;4912079;28;36042;-76
2023/04/07 04:04:18;;;;;;;21.43;6.00;;;8.40;99.90;;;;;;4944128;28;39327;-76
2023/04/07 04:06:44;;;;;;;24.37;5.60;;;8.50;99.90;;;;;;4953213;28;38570;-76
2023/04/07 04:09:10;;;;;;;16.10;5.87;;;8.50;99.90;;;;;;4953638;28;38686;-76
2023/04/07 04:11:36;;;;;;;24.30;5.73;;;8.50;99.90;;;;;;4931532;28;37464;-75
2023/04/07 04:14:02;;;;;;;19.93;5.60;;;8.50;99.90;;;;;;4926494;28;38171;-75
2023/04/07 04:16:30;;;;;;;19.43;6.33;;;8.50;99.90;;;;;;4940303;28;38972;-75
2023/04/07 04:18:56;;;;;;;23.87;6.60;;;8.50;99.90;;;;;;4937326;28;37136;-75
2023/04/07 04:21:22;;;;;;;23.37;5.90;;;8.50;99.90;;;;;;4943230;28;37010;-75
2023/04/07 04:23:48;;;;;;;11.70;4.93;;;8.50;99.90;;;;;;4940156;28;37816;-75
2023/04/07 04:26:14;;;;;;;14.37;5.10;;;8.50;99.90;;;;;;4944818;28;39594;-75
2023/04/07 04:28:41;;;;;;;18.47;5.70;;;8.50;99.90;;;;;;4922927;28;37584;-75
2023/04/07 04:31:07;;;;;;;18.03;6.30;;;8.50;99.90;;;;;;4924241;28;38093;-75
2023/04/07 04:33:33;;;;;;;19.13;6.47;;;8.50;99.90;;;;;;4933418;28;37860;-76
2023/04/07 04:35:59;;;;;;;18.23;6.27;;;8.50;99.90;;;;;;4928082;28;37499;-76
2023/04/07 04:38:25;;;;;;;20.40;6.20;;;8.60;99.90;;;;;;4928552;28;37235;-75
2023/04/07 04:40:51;;;;;;;22.73;6.13;;;8.60;99.90;;;;;;4923565;28;35975;-75
2023/04/07 04:43:17;;;;;;;17.77;5.33;;;8.60;99.90;;;;;;4929096;28;37404;-75
2023/04/07 04:45:43;;;;;;;17.10;6.47;;;8.50;99.90;;;;;;4929095;28;37628;-74
2023/04/07 04:48:10;;;;;;;12.70;5.60;;;8.50;99.90;;;;;;4929731;28;37002;-76
2023/04/07 04:50:36;;;;;;;15.77;6.40;;;8.40;99.90;;;;;;4948302;28;37922;-76
2023/04/07 04:53:02;;;;;;;14.30;6.00;;;8.40;99.90;;;;;;4951112;28;38626;-75
2023/04/07 04:55:28;;;;;;;20.93;6.27;;;8.40;99.90;;;;;;4936734;28;38011;-76
2023/04/07 04:57:54;;;;;;;14.83;6.50;;;8.40;99.90;;;;;;4941523;28;38282;-75
2023/04/07 05:00:20;;;;;;;18.50;6.50;;;8.30;99.90;;;;;;4929713;28;36526;-77
2023/04/07 05:02:46;;;;;;;15.90;6.17;;;8.30;99.90;;;;;;4920528;28;38358;-77
2023/04/07 05:05:13;;;;;;;19.03;5.00;;;8.30;99.90;;;;;;4949038;28;38459;-77
2023/04/07 05:07:39;;;;;;;15.97;4.73;;;8.40;99.90;;;;;;4952245;28;38387;-78
2023/04/07 05:10:08;;;;;;;16.90;5.27;;;8.30;99.90;;;;;;4948411;28;37465;-77
2023/04/07 05:12:35;;;;;;;19.00;5.53;;;8.30;99.90;;;;;;4900495;28;47614;-75
2023/04/07 05:15:02;;;;;;;15.80;4.40;;;8.30;99.90;;;;;;4930239;28;38531;-75
2023/04/07 05:17:28;;;;;;;13.87;3.60;;;8.40;99.90;;;;;;4923721;28;39232;-76
2023/04/07 05:19:54;;;;;;;16.73;3.47;;;8.40;99.90;;;;;;4932093;28;36198;-74
2023/04/07 05:22:20;;;;;;;14.57;4.23;;;8.40;99.90;;;;;;4945403;28;38952;-75
2023/04/07 05:24:46;;;;;;;14.70;3.73;;;8.40;99.90;;;;;;4943633;28;39882;-75
2023/04/07 05:27:12;;;;;;;14.17;3.53;;;8.40;99.90;;;;;;4939995;28;38422;-75
2023/04/07 05:29:38;;;;;;;12.37;3.37;;;8.50;99.90;;;;;;4930155;28;36442;-75
2023/04/07 05:32:05;;;;;;;14.07;3.10;;;8.50;99.90;;;;;;4932873;28;37666;-75
2023/04/07 05:34:31;;;;;;;12.97;3.30;;;8.50;99.90;;;;;;4945986;28;38998;-76
2023/04/07 05:36:57;;;;;;;18.17;3.30;;;8.60;99.90;;;;;;4921168;28;37380;-76
2023/04/07 05:39:32;;;;;;;14.17;2.93;;;8.60;99.90;;;;;;4924699;28;37398;-76
2023/04/07 05:42:00;;;;;;;14.97;3.70;;;8.60;99.90;;;;;;4941464;28;38905;-75
2023/04/07 05:44:26;;;;;;;19.27;4.00;;;8.60;99.90;;;;;;4938927;28;41043;-76
2023/04/07 05:46:52;;;;;;;15.60;4.30;;;8.60;99.90;;;;;;4926754;28;38054;-75
2023/04/07 05:49:18;;;;;;;17.17;3.83;;;8.70;99.90;;;;;;4942714;28;38032;-74
2023/04/07 05:51:47;;;;;;;15.97;4.17;;;8.70;99.90;;;;;;4932211;28;40420;-76
2023/04/07 05:54:13;;;;;;;13.50;2.80;;;8.70;99.90;;;;;;4940272;28;39967;-76
2023/04/07 05:56:39;;;;;;;12.97;4.57;;;8.70;99.90;;;;;;4927669;28;38290;-76
2023/04/07 05:59:05;;;;;;;13.10;2.67;;;8.70;99.90;;;;;;4946439;28;36645;-75
2023/04/07 06:01:31;;;;;;;14.53;2.40;;;8.70;99.90;;;;;;4923715;28;37529;-75
2023/04/07 06:03:58;;;;;;;11.40;2.30;;;8.80;99.90;;;;;;4956567;28;39833;-75
2023/04/07 06:06:25;;;;;;;10.73;2.47;;;8.80;99.90;;;;;;4929554;28;37301;-76
2023/04/07 06:08:51;;;;;;;13.20;2.57;;;8.80;99.90;;;;;;4950070;28;37509;-76
2023/04/07 06:11:17;;;;;;;11.30;2.33;;;8.80;99.90;;;;;;4956908;28;38963;-76
2023/04/07 06:13:44;;;;;;;10.10;2.70;;;8.80;99.90;;;;;;4932863;28;39092;-76
2023/04/07 06:16:10;;;;;;;9.07;2.13;;;8.80;99.90;;;;;;4928856;28;37405;-76
2023/04/07 06:18:36;;;;;;;11.67;2.73;;;8.80;99.90;;;;;;4956598;28;37136;-74
2023/04/07 06:21:02;;;;;;;12.00;1.67;;;8.90;99.90;;;;;;4923679;28;37905;-74
2023/04/07 06:23:28;;;;;;;16.27;2.33;;;8.80;99.90;;;;;;4951464;28;39457;-75
2023/04/07 06:25:54;;;;;;;6.93;1.70;;;8.80;99.90;;;;;;4954786;28;38380;-75
2023/04/07 06:28:21;;;;;;;15.37;2.10;;;8.90;99.90;;;;;;4927218;28;36278;-76
2023/04/07 06:30:47;;;;;;;10.00;1.77;;;8.90;99.90;;;;;;4923666;28;39885;-76
2023/04/07 06:33:13;;;;;;;13.97;2.50;;;9.00;99.90;;;;;;4948452;28;38806;-75
2023/04/07 06:35:40;;;;;;;13.27;1.97;;;9.00;99.90;;;;;;4942096;28;39178;-75
2023/04/07 06:38:06;;;;;;;14.83;2.20;;;9.00;99.90;;;;;;4943743;28;36726;-75
2023/04/07 06:40:32;;;;;;;11.90;1.90;;;9.00;99.90;;;;;;4929956;28;38108;-75
2023/04/07 06:42:58;;;;;;;14.27;2.17;;;9.10;99.90;;;;;;4938567;28;38688;-76
2023/04/07 06:45:25;;;;;;;14.70;2.43;;;9.10;99.90;;;;;;4941643;28;37444;-75
2023/04/07 06:47:51;;;;;;;9.33;2.13;;;9.20;99.90;;;;;;4925007;28;36168;-76
2023/04/07 06:50:19;;;;;;;10.63;1.83;;;9.30;99.90;;;;;;4928280;28;39138;-75
2023/04/07 06:52:45;;;;;;;15.67;2.07;;;9.30;99.90;;;;;;4917637;28;38344;-76
2023/04/07 06:55:11;;;;;;;14.20;1.87;;;9.40;99.90;;;;;;4920065;28;37554;-76
2023/04/07 06:57:37;;;;;;;17.73;2.40;;;9.40;99.90;;;;;;4919413;28;36224;-75
2023/04/07 07:00:06;;;;;;;12.80;1.60;;;9.40;99.90;;;;;;4932130;28;36752;-75
2023/04/07 07:02:33;;;;;;;9.20;1.70;;;9.40;99.90;;;;;;4924019;28;38723;-75
2023/04/07 07:04:59;;;;;;;15.57;1.70;;;9.40;99.90;;;;;;4924054;28;37323;-76
2023/04/07 07:07:25;;;;;;;16.37;2.17;;;9.40;99.90;;;;;;4924127;28;36233;-75
2023/04/07 07:09:52;;;;;;;14.53;2.20;;;9.40;99.90;;;;;;4927908;28;37497;-75
2023/04/07 07:12:19;;;;;;;4.60;1.70;;;9.40;99.90;;;;;;4921997;28;40041;-76
2023/04/07 07:14:45;;;;;;;15.43;2.47;;;9.40;99.90;;;;;;4925926;28;37293;-77
2023/04/07 07:17:11;;;;;;;13.93;2.47;;;9.30;99.90;;;;;;4930495;28;35671;-76
2023/04/07 07:19:37;;;;;;;23.80;3.30;;;9.30;99.90;;;;;;4935076;28;37363;-76
2023/04/07 07:22:03;;;;;;;12.07;2.50;;;9.20;99.90;;;;;;4949421;28;38676;-76
2023/04/07 07:24:32;;;;;;;12.60;1.97;;;9.10;99.90;;;;;;4946671;28;40337;-74
2023/04/07 07:27:00;;;;;;;18.43;2.33;;;9.10;99.90;;;;;;4948830;28;37839;-75
2023/04/07 07:29:26;;;;;;;14.37;1.90;;;9.10;99.90;;;;;;4949391;28;38769;-75
2023/04/07 07:31:52;;;;;;;10.13;2.10;;;9.20;99.90;;;;;;4933371;28;37499;-76
2023/04/07 07:34:18;;;;;;;10.50;2.70;;;9.30;99.90;;;;;;4951282;28;39455;-75
2023/04/07 07:36:45;;;;;;;17.10;1.83;;;9.30;99.90;;;;;;4948148;28;38103;-76
2023/04/07 07:39:11;;;;;;;17.33;1.80;;;9.30;99.90;;;;;;4922750;28;37296;-76
2023/04/07 07:41:37;;;;;;;20.10;2.50;;;9.40;99.90;;;;;;4943465;28;39431;-76
2023/04/07 07:44:03;;;;;;;15.17;1.97;;;9.30;99.90;;;;;;4942063;28;39740;-75
2023/04/07 07:46:29;;;;;;;10.07;2.07;;;9.40;99.90;;;;;;4928769;28;36211;-75
2023/04/07 07:48:55;;;;;;;14.07;2.13;;;9.50;99.90;;;;;;4947551;28;38992;-75
2023/04/07 07:51:21;;;;;;;12.03;2.00;;;9.40;99.90;;;;;;4949474;28;40345;-75
2023/04/07 07:53:47;;;;;;;16.50;2.93;;;9.50;99.90;;;;;;4930274;28;38619;-75
2023/04/07 07:56:13;;;;;;;14.23;2.27;;;9.50;99.90;;;;;;4921656;28;36347;-76
2023/04/07 07:58:40;;;;;;;17.13;2.40;;;9.50;99.90;;;;;;4942580;28;39948;-76
2023/04/07 08:01:06;;;;;;;12.37;2.40;;;9.40;99.90;;;;;;4940289;28;38738;-76
2023/04/07 08:03:32;;;;;;;13.23;3.00;;;9.40;99.90;;;;;;4928055;28;37389;-76
2023/04/07 08:05:58;;;;;;;14.60;2.70;;;9.40;99.90;;;;;;4930387;28;35963;-76
2023/04/07 08:08:24;;;;;;;12.40;2.90;;;9.50;99.90;;;;;;4933612;28;38971;-76
2023/04/07 08:10:51;;;;;;;14.63;2.73;;;9.40;99.90;;;;;;4932683;28;37777;-77
2023/04/07 08:13:17;;;;;;;15.27;2.60;;;9.50;99.90;;;;;;4928045;28;38195;-77
2023/04/07 08:15:43;;;;;;;21.23;2.70;;;9.50;99.90;;;;;;4929746;28;36234;-76
2023/04/07 08:18:09;;;;;;;12.30;1.83;;;9.50;99.90;;;;;;4929149;28;38719;-74
2023/04/07 08:20:35;;;;;;;12.00;2.10;;;9.50;99.90;;;;;;4942698;28;39530;-75
2023/04/07 08:23:01;;;;;;;11.83;2.40;;;9.70;99.90;;;;;;4930607;28;37370;-77
2023/04/07 08:25:28;;;;;;;11.93;2.20;;;9.90;99.90;;;;;;4929030;28;36422;-77
2023/04/07 08:27:54;;;;;;;8.97;1.87;;;10.00;99.90;;;;;;4929129;28;39449;-77
2023/04/07 08:30:21;;;;;;;13.83;2.00;;;10.10;99.90;;;;;;4927611;28;38238;-77
2023/04/07 08:32:48;;;;;;;10.03;1.53;;;10.00;99.90;;;;;;4930518;28;37309;-75
2023/04/07 08:35:14;;;;;;;5.63;1.20;;;10.10;99.90;;;;;;4929239;28;37185;-76
2023/04/07 08:37:42;;;;;;;13.47;2.00;;;10.00;99.90;;;;;;4949779;28;39892;-77
2023/04/07 08:40:09;;;;;;;11.27;1.93;;;9.90;99.90;;;;;;4931255;28;37637;-76
2023/04/07 08:42:40;;;;;;;12.50;2.03;;;9.90;99.90;;;;;;4928850;28;37271;-77
2023/04/07 08:45:08;;;;;;;13.63;1.80;;;10.00;99.90;;;;;;4945834;28;37229;-76
2023/04/07 08:47:36;;;;;;;9.93;1.57;;;9.90;99.90;;;;;;4937970;28;39145;-76
2023/04/07 08:50:10;;;;;;;12.27;1.80;;;9.80;99.90;;;;;;4921516;28;37885;-76
2023/04/07 08:52:53;;;;;;;9.17;1.30;;;9.90;99.90;;;;;;4931903;28;47125;-78
2023/04/07 08:55:20;;;;;;;15.53;2.23;;;9.90;99.90;;;;;;4924128;28;36039;-76
2023/04/07 08:57:46;;;;;;;16.17;1.87;;;10.00;99.90;;;;;;4931489;28;37624;-77
2023/04/07 09:00:13;;;;;;;9.23;2.10;;;10.10;99.90;;;;;;4930227;28;39117;-76
2023/04/07 09:02:44;;;;;;;15.40;2.78;;;10.20;99.90;;;;;;4928698;28;38344;-77
2023/04/07 09:05:13;;;;;;;7.83;1.40;;;10.20;99.90;;;;;;4943590;28;37965;-76
2023/04/07 09:07:39;;;;;;;10.77;1.98;;;10.00;99.90;;;;;;4932198;28;37937;-77
2023/04/07 09:10:06;;;;;;;13.50;2.07;;;10.10;99.90;;;;;;4926749;28;38898;-76
2023/04/07 09:12:33;;;;;;;9.50;1.47;;;10.20;99.90;;;;;;4945487;28;38118;-76
2023/04/07 09:14:59;;;;;;;13.52;2.05;;;10.40;99.90;;;;;;4944003;28;38308;-76
2023/04/07 09:17:27;;;;;;;11.95;2.20;;;10.40;99.90;;;;;;4939350;28;38544;-75
2023/04/07 09:19:56;;;;;;;13.57;1.33;;;10.50;99.90;;;;;;4937178;28;38657;-76
2023/04/07 09:22:41;;;;;;;15.82;2.33;;;10.40;99.90;;;;;;4932209;28;37380;-76
2023/04/07 09:25:22;;;;;;;7.30;1.80;;;10.40;99.90;;;;;;4947090;28;37110;-76
2023/04/07 09:27:59;;;;;;;11.27;1.70;;;10.30;99.90;;;;;;4926627;28;37682;-75
2023/04/07 09:30:27;;;;;;;5.97;1.53;;;10.30;99.90;;;;;;4934339;28;38580;-76
2023/04/07 09:32:54;;;;;;;11.30;2.67;;;10.40;99.90;;;;;;4950350;28;37959;-76
2023/04/07 09:35:22;;;;;;;8.98;2.10;;;10.40;99.90;;;;;;4928478;28;36633;-76
2023/04/07 09:38:07;;;;;;;6.57;1.42;;;10.50;99.90;;;;;;4927492;28;37677;-75
2023/04/07 09:40:35;;;;;;;13.27;2.28;;;10.70;99.90;;;;;;4940635;28;48514;-77
2023/04/07 09:43:03;;;;;;;10.98;1.88;;;10.70;99.90;;;;;;4943162;28;38584;-77
2023/04/07 09:45:38;;;;;;;8.35;2.10;;;10.80;99.90;;;;;;4944490;28;37580;-77
2023/04/07 09:48:16;;;;;;;15.18;2.28;;;10.80;99.90;;;;;;4952109;28;39762;-76
2023/04/07 09:50:44;;;;;;;11.60;2.00;;;10.80;99.90;;;;;;4933268;28;39176;-76
2023/04/07 09:53:11;;;;;;;10.05;2.10;;;10.70;99.90;;;;;;4949992;28;38308;-76
2023/04/07 09:55:40;;;;;;;13.45;1.77;;;10.60;99.90;;;;;;4954133;28;38092;-76
2023/04/07 09:58:08;;;;;;;11.35;1.75;;;10.50;99.90;;;;;;4940122;28;37332;-77
2023/04/07 10:00:35;;;;;;;15.43;2.05;;;10.50;99.90;;;;;;4933428;28;38578;-77
2023/04/07 10:03:03;;;;;;;12.38;1.70;;;10.50;99.90;;;;;;4960401;28;39642;-77
2023/04/07 10:05:30;;;;;;;20.63;2.25;;;10.70;99.90;;;;;;4954923;28;37582;-76
2023/04/07 10:07:56;;;;;;;15.45;1.98;;;10.90;99.90;;;;;;4965702;28;39706;-76
2023/04/07 10:10:24;;;;;;;14.05;1.67;;;11.00;99.90;;;;;;4918748;28;37632;-76
2023/04/07 10:12:52;;;;;;;16.48;2.03;;;11.00;99.90;;;;;;4956788;28;38294;-77
2023/04/07 10:15:19;;;;;;;8.10;1.50;;;11.00;99.90;;;;;;4932946;28;36040;-77
2023/04/07 10:17:49;;;;;;;11.60;2.58;;;10.90;99.90;;;;;;4951518;28;39047;-76
2023/04/07 10:20:21;;;;;;;9.77;2.05;;;10.70;99.90;;;;;;4958756;28;40240;-76
2023/04/07 10:22:50;;;;;;;13.47;2.30;;;10.50;99.90;;;;;;4935515;28;37525;-76
2023/04/07 10:25:20;;;;;;;12.40;2.05;;;10.40;99.90;;;;;;4952481;28;37871;-79
2023/04/07 10:27:53;;;;;;;14.02;2.08;;;10.40;99.90;;;;;;4931312;28;37874;-77
2023/04/07 10:30:24;;;;;;;7.78;1.60;;;10.20;99.90;;;;;;4942970;28;38570;-78
2023/04/07 10:32:52;;;;;;;12.15;1.98;;;10.20;99.90;;;;;;4926966;28;38686;-75
2023/04/07 10:35:20;;;;;;;14.07;1.42;;;10.30;99.90;;;;;;4919328;28;35988;-77
2023/04/07 10:38:05;;;;;;;12.30;1.83;;;10.40;99.90;;;;;;4938070;28;37764;-76
2023/04/07 10:40:32;;;;;;;12.60;1.95;;;10.40;99.90;;;;;;4925344;28;47306;-75
2023/04/07 10:42:58;;;;;;;11.73;1.90;;;10.60;99.90;;;;;;4923414;28;37870;-76
2023/04/07 10:45:47;;;;;;;7.50;1.50;;;10.60;99.90;;;;;;4951654;28;36831;-76
2023/04/07 10:48:17;;;;;;;14.35;2.00;;;10.50;99.90;;;;;;4943215;28;39202;-76
2023/04/07 10:51:07;;;;;;;5.45;1.50;;;10.40;99.90;;;;;;4928108;28;38213;-76
2023/04/07 10:53:36;;;;;;;10.55;1.77;;;10.40;99.90;;;;;;4929835;28;47077;-77
2023/04/07 10:56:02;;;;;;;13.02;1.60;;;10.70;99.90;;;;;;4947348;28;36260;-77
2023/04/07 10:58:32;;;;;;;6.20;1.42;;;10.90;99.90;;;;;;4937303;28;37531;-77
2023/04/07 11:01:09;;;;;;;7.60;1.67;;;11.30;99.90;;;;;;4950474;28;38876;-77
2023/04/07 11:03:37;;;;;;;10.52;1.48;;;11.60;99.90;;;;;;4928522;28;47770;-77
2023/04/07 11:06:11;;;;;;;8.73;1.42;;;11.80;99.90;;;;;;4933938;28;36544;-80
2023/04/07 11:08:39;;;;;;;5.93;1.38;;;11.90;99.90;;;;;;4943885;28;38977;-77
2023/04/07 11:11:08;;;;;;;9.20;2.42;;;11.60;99.90;;;;;;4941375;28;38496;-77
2023/04/07 11:13:45;;;;;;;9.63;1.33;;;11.20;99.90;;;;;;4946074;28;38753;-77
2023/04/07 11:16:13;;;;;;;6.47;1.30;;;11.10;99.90;;;;;;4938060;28;36092;-77
2023/04/07 11:18:40;;;;;;;11.43;1.60;;;10.90;99.90;;;;;;4949387;28;38725;-77
2023/04/07 11:21:07;;;;;;;11.32;2.30;;;10.90;99.90;;;;;;4939249;28;37708;-77
2023/04/07 11:23:45;;;;;;;9.15;1.50;;;10.90;99.90;;;;;;4944503;28;38650;-78
2023/04/07 11:26:13;;;;;;;5.82;1.30;;;10.90;99.90;;;;;;4938955;28;37135;-78
2023/04/07 11:28:47;;;;;;;8.95;1.83;;;11.10;99.90;;;;;;4934618;28;37947;-78
2023/04/07 11:31:27;;;;;;;10.73;2.17;;;11.20;99.90;;;;;;4939455;28;38557;-77
2023/04/07 11:33:55;;;;;;;7.90;1.48;;;11.10;99.90;;;;;;4940753;28;38175;-77
2023/04/07 11:36:28;;;;;;;12.80;1.75;;;11.00;99.90;;;;;;4921064;28;37500;-77
2023/04/07 11:38:56;;;;;;;9.77;2.00;;;10.80;99.90;;;;;;4955932;28;38787;-76
2023/04/07 11:41:24;;;;;;;16.65;2.40;;;11.00;99.90;;;;;;4945504;28;39867;-77
2023/04/07 11:44:09;;;;;;;8.95;1.55;;;11.00;99.90;;;;;;4930373;28;37615;-77
2023/04/07 11:46:50;;;;;;;9.73;1.88;;;11.00;99.90;;;;;;4940335;28;48571;-77
2023/04/07 11:49:16;;;;;;;8.93;1.83;;;11.00;99.90;;;;;;4951166;28;37085;-77
2023/04/07 11:51:44;;;;;;;11.23;1.50;;;11.00;99.90;;;;;;4943610;28;38817;-77
2023/04/07 11:54:10;;;;;;;11.15;1.90;;;11.00;99.90;;;;;;4950708;28;38290;-78
2023/04/07 11:56:45;;;;;;;9.40;1.52;;;10.90;99.90;;;;;;4928911;28;36129;-78
2023/04/07 11:59:23;;;;;;;5.70;1.20;;;11.00;99.90;;;;;;4947192;28;38842;-78
2023/04/07 12:01:52;;;;;;;10.95;2.08;;;11.00;99.90;;;;;;4925736;28;37915;-78
2023/04/07 12:04:19;;;;;;;10.45;2.03;;;11.10;99.90;;;;;;4928298;28;38267;-77
2023/04/07 12:06:47;;;;;;;7.55;1.20;;;11.10;99.90;;;;;;4921737;28;36125;-78
2023/04/07 12:09:29;;;;;;;6.53;1.27;;;11.00;99.90;;;;;;4947519;28;39090;-78
2023/04/07 12:11:56;;;;;;;6.22;1.40;;;11.00;99.90;;;;;;4926603;28;38978;-78
2023/04/07 12:14:24;;;;;;;8.27;1.75;;;11.00;99.90;;;;;;4944006;28;35284;-77
2023/04/07 12:16:51;;;;;;;7.50;1.60;;;11.10;99.90;;;;;;4942131;28;38264;-78
2023/04/07 12:19:17;;;;;;;9.65;1.70;;;11.00;99.90;;;;;;4931358;28;38744;-77
2023/04/07 12:21:46;;;;;;;10.20;1.65;;;11.10;99.90;;;;;;4930507;28;37972;-79
2023/04/07 12:24:13;;;;;;;7.22;1.30;;;11.10;99.90;;;;;;4933081;28;37268;-77
2023/04/07 12:26:39;;;;;;;11.00;1.60;;;11.20;99.90;;;;;;4936623;28;36065;-78
2023/04/07 12:29:05;;;;;;;9.20;1.70;;;11.30;99.90;;;;;;4928675;28;38464;-77
2023/04/07 12:31:32;;;;;;;9.88;1.90;;;11.30;99.90;;;;;;4951978;28;39996;-77
2023/04/07 12:33:58;;;;;;;6.55;1.67;;;11.30;99.90;;;;;;4949926;28;38411;-77
2023/04/07 12:36:26;;;;;;;9.07;1.38;;;11.30;99.90;;;;;;4931852;28;36413;-77
2023/04/07 12:38:53;;;;;;;9.75;1.40;;;11.30;99.90;;;;;;4932391;28;38592;-78
2023/04/07 12:41:20;;;;;;;6.90;1.40;;;11.40;99.90;;;;;;4922440;28;38924;-77
2023/04/07 12:43:46;;;;;;;10.27;1.48;;;11.20;99.90;;;;;;4922179;28;37254;-77
2023/04/07 12:46:12;;;;;;;8.85;1.27;;;11.40;99.90;;;;;;4951124;28;37400;-77
2023/04/07 12:48:38;;;;;;;8.98;1.45;;;11.40;99.90;;;;;;4926699;28;40226;-78
2023/04/07 12:51:04;;;;;;;6.97;1.40;;;11.50;99.90;;;;;;4921228;28;38410;-78
2023/04/07 12:53:31;;;;;;;7.68;1.35;;;11.20;99.90;;;;;;4928819;28;38704;-77